createdAt,value
2023-02-23T00:01:56.349Z,7.10
2023-02-23T00:04:25.019Z,8.33
2023-02-23T00:06:53.936Z,8.10
2023-02-23T00:09:24.792Z,6.33
2023-02-23T00:11:57.357Z,7.33
2023-02-23T00:14:31.310Z,7.60
2023-02-23T00:17:00.099Z,7.37
2023-02-23T00:19:27.837Z,7.40
2023-02-23T00:21:59.120Z,7.83
2023-02-23T00:24:27.141Z,7.85
2023-02-23T00:26:54.561Z,7.13
2023-02-23T00:29:24.926Z,6.73
2023-02-23T00:31:56.288Z,8.23
2023-02-23T00:34:23.998Z,7.00
2023-02-23T00:36:56.763Z,7.67
2023-02-23T00:39:29.322Z,7.73
2023-02-23T00:42:02.600Z,7.30
2023-02-23T00:44:30.755Z,7.63
2023-02-23T00:46:58.188Z,7.97
2023-02-23T00:49:25.607Z,7.57
2023-02-23T00:51:53.409Z,7.43
2023-02-23T00:54:22.464Z,6.67
2023-02-23T00:56:50.787Z,7.60
2023-02-23T00:59:19.178Z,6.73
2023-02-23T01:01:46.840Z,7.27
2023-02-23T01:04:14.325Z,8.23
2023-02-23T01:06:42.681Z,7.27
2023-02-23T01:09:13.933Z,8.47
2023-02-23T01:11:46.984Z,6.82
2023-02-23T01:14:15.749Z,8.07
2023-02-23T01:16:43.228Z,7.90
2023-02-23T01:19:10.755Z,7.80
2023-02-23T01:21:42.198Z,7.83
2023-02-23T01:24:10.017Z,8.63
2023-02-23T01:26:39.897Z,8.13
2023-02-23T01:29:13.126Z,9.03
2023-02-23T01:31:44.946Z,9.53
2023-02-23T01:34:14.237Z,9.93
2023-02-23T01:36:43.845Z,10.83
2023-02-23T01:39:14.180Z,9.93
2023-02-23T01:41:44.991Z,12.40
2023-02-23T01:44:55.908Z,11.73
2023-02-23T01:47:23.296Z,10.27
2023-02-23T01:49:51.137Z,10.87
2023-02-23T01:52:19.740Z,11.17
2023-02-23T01:54:54.183Z,11.00
2023-02-23T01:57:25.309Z,10.47
2023-02-23T01:59:54.655Z,9.27
2023-02-23T02:02:33.476Z,11.57
2023-02-23T02:05:04.699Z,10.80
2023-02-23T02:07:35.346Z,10.25
2023-02-23T02:10:32.873Z,9.50
2023-02-23T02:13:00.334Z,9.37
2023-02-23T02:15:32.793Z,9.87
2023-02-23T02:18:53.437Z,9.53
2023-02-23T02:22:00.771Z,9.30
2023-02-23T02:24:52.631Z,7.77
2023-02-23T02:27:38.307Z,8.55
2023-02-23T02:30:44.334Z,8.40
2023-02-23T02:33:45.940Z,8.37
2023-02-23T02:36:53.240Z,8.10
2023-02-23T02:40:18.657Z,8.27
2023-02-23T02:43:18.650Z,6.83
2023-02-23T02:46:20.967Z,7.80
2023-02-23T02:48:57.921Z,7.23
2023-02-23T02:51:40.823Z,7.63
2023-02-23T02:54:25.603Z,6.60
2023-02-23T02:56:57.700Z,7.23
2023-02-23T02:59:46.442Z,6.67
2023-02-23T03:02:38.976Z,6.37
2023-02-23T03:05:32.374Z,7.43
2023-02-23T03:08:39.450Z,6.57
2023-02-23T03:11:28.797Z,6.27
2023-02-23T03:15:08.077Z,6.97
2023-02-23T03:18:06.879Z,7.03
2023-02-23T03:21:06.317Z,8.10
2023-02-23T03:24:24.900Z,6.77
2023-02-23T03:27:38.802Z,6.60
2023-02-23T03:30:48.980Z,7.10
2023-02-23T03:34:16.518Z,8.37
2023-02-23T03:37:11.153Z,7.10
2023-02-23T03:40:02.919Z,7.13
2023-02-23T03:45:42.437Z,5.77
2023-02-23T03:48:31.505Z,7.67
2023-02-23T03:51:22.554Z,6.87
2023-02-23T03:54:32.169Z,7.43
2023-02-23T03:57:22.223Z,7.13
2023-02-23T04:00:14.492Z,7.77
2023-02-23T04:03:03.823Z,8.13
2023-02-23T04:05:51.548Z,8.00
2023-02-23T04:08:39.074Z,7.07
2023-02-23T04:11:46.139Z,8.67
2023-02-23T04:14:23.766Z,8.80
2023-02-23T04:16:51.915Z,6.93
2023-02-23T04:19:19.233Z,7.57
2023-02-23T04:21:46.584Z,8.23
2023-02-23T04:24:13.993Z,7.60
2023-02-23T04:26:41.425Z,7.93
2023-02-23T04:29:08.770Z,9.20
2023-02-23T04:31:36.229Z,10.13
2023-02-23T04:34:04.810Z,9.40
2023-02-23T04:36:32.258Z,9.10
2023-02-23T04:38:59.874Z,8.48
2023-02-23T04:41:27.229Z,10.68
2023-02-23T04:43:54.569Z,9.40
2023-02-23T04:46:21.932Z,8.52
2023-02-23T04:48:49.310Z,7.97
2023-02-23T04:51:17.048Z,8.35
2023-02-23T04:53:44.520Z,8.23
2023-02-23T04:56:12.147Z,9.00
2023-02-23T04:58:39.877Z,8.20
2023-02-23T05:01:09.831Z,8.60
2023-02-23T05:03:37.400Z,8.03
2023-02-23T05:06:04.971Z,8.00
2023-02-23T05:08:32.485Z,8.30
2023-02-23T05:10:59.812Z,7.50
2023-02-23T05:13:27.226Z,7.47
2023-02-23T05:15:58.023Z,8.20
2023-02-23T05:18:26.674Z,7.90
2023-02-23T05:21:01.201Z,8.07
2023-02-23T05:23:28.579Z,7.07
2023-02-23T05:26:01.362Z,7.57
2023-02-23T05:28:29.047Z,8.03
2023-02-23T05:30:56.557Z,8.23
2023-02-23T05:33:24.044Z,9.07
2023-02-23T05:35:51.355Z,9.40
2023-02-23T05:38:20.062Z,9.03
2023-02-23T05:40:47.654Z,9.10
2023-02-23T05:43:15.071Z,10.40
2023-02-23T05:45:44.742Z,8.73
2023-02-23T05:48:12.647Z,9.10
2023-02-23T05:50:40.053Z,9.83
2023-02-23T05:53:07.442Z,10.43
2023-02-23T05:55:36.346Z,10.50
2023-02-23T05:58:03.792Z,11.10
2023-02-23T06:00:31.346Z,9.97
2023-02-23T06:02:58.714Z,8.37
2023-02-23T06:05:26.058Z,11.23
2023-02-23T06:07:53.983Z,9.10
2023-02-23T06:10:21.479Z,9.20
2023-02-23T06:12:49.777Z,10.13
2023-02-23T06:15:17.413Z,8.43
2023-02-23T06:17:44.815Z,8.87
2023-02-23T06:20:12.610Z,8.65
2023-02-23T06:22:39.966Z,9.45
2023-02-23T06:25:12.764Z,9.13
2023-02-23T06:27:40.402Z,9.67
2023-02-23T06:30:08.681Z,10.32
2023-02-23T06:32:36.071Z,10.13
2023-02-23T06:35:06.471Z,9.17
2023-02-23T06:37:34.683Z,8.82
2023-02-23T06:40:03.415Z,8.48
2023-02-23T06:42:30.813Z,9.38
2023-02-23T06:44:58.689Z,9.45
2023-02-23T06:47:25.973Z,10.30
2023-02-23T06:49:53.317Z,10.07
2023-02-23T06:52:20.662Z,9.95
2023-02-23T06:54:50.019Z,10.15
2023-02-23T06:57:17.484Z,9.85
2023-02-23T06:59:44.834Z,10.38
2023-02-23T07:02:14.620Z,10.35
2023-02-23T07:04:42.154Z,10.20
2023-02-23T07:07:09.534Z,9.25
2023-02-23T07:09:37.059Z,10.82
2023-02-23T07:12:05.316Z,8.52
2023-02-23T07:14:33.298Z,10.27
2023-02-23T07:17:00.615Z,9.55
2023-02-23T07:19:28.757Z,9.65
2023-02-23T07:21:56.718Z,8.88
2023-02-23T07:24:24.141Z,9.48
2023-02-23T07:26:52.159Z,10.20
2023-02-23T07:29:20.043Z,9.10
2023-02-23T07:31:50.048Z,9.10
2023-02-23T07:34:17.668Z,8.65
2023-02-23T07:36:44.971Z,8.60
2023-02-23T07:39:12.909Z,9.10
2023-02-23T07:41:40.209Z,9.25
2023-02-23T07:44:17.292Z,8.35
2023-02-23T07:46:46.606Z,10.02
2023-02-23T07:49:14.027Z,8.60
2023-02-23T07:51:42.600Z,9.73
2023-02-23T07:54:09.955Z,10.68
2023-02-23T07:56:37.293Z,9.40
2023-02-23T07:59:04.690Z,10.35
2023-02-23T08:01:32.108Z,9.23
2023-02-23T08:03:59.484Z,9.85
2023-02-23T08:06:26.852Z,9.80
2023-02-23T08:08:54.202Z,11.00
2023-02-23T08:11:21.723Z,10.07
2023-02-23T08:13:49.034Z,9.93
2023-02-23T08:16:16.581Z,10.38
2023-02-23T08:18:43.921Z,9.55
2023-02-23T08:21:11.900Z,9.57
2023-02-23T08:23:39.529Z,9.48
2023-02-23T08:26:06.831Z,9.57
2023-02-23T08:28:34.130Z,10.30
2023-02-23T08:31:01.532Z,8.65
2023-02-23T08:33:31.654Z,10.48
2023-02-23T08:35:59.662Z,10.20
2023-02-23T08:38:26.950Z,9.35
2023-02-23T08:40:55.048Z,9.10
2023-02-23T08:43:22.310Z,9.57
2023-02-23T08:45:49.649Z,9.55
2023-02-23T08:48:16.932Z,9.45
2023-02-23T08:50:44.259Z,9.27
2023-02-23T08:53:11.515Z,9.93
2023-02-23T08:55:38.814Z,10.93
2023-02-23T08:58:10.848Z,9.27
2023-02-23T09:03:06.803Z,9.60
2023-02-23T09:05:37.750Z,10.52
2023-02-23T09:08:05.182Z,9.48
2023-02-23T09:10:33.555Z,9.80
2023-02-23T09:13:00.855Z,9.35
2023-02-23T09:15:28.155Z,10.05
2023-02-23T09:17:59.380Z,8.68
2023-02-23T09:20:26.754Z,8.88
2023-02-23T09:22:54.072Z,8.95
2023-02-23T09:25:25.480Z,9.25
2023-02-23T09:27:56.401Z,7.78
2023-02-23T09:30:24.040Z,8.80
2023-02-23T09:32:52.087Z,8.32
2023-02-23T09:35:21.312Z,9.63
2023-02-23T09:37:51.893Z,8.30
2023-02-23T09:40:26.313Z,7.97
2023-02-23T09:43:35.657Z,8.93
2023-02-23T09:46:30.381Z,9.73
2023-02-23T09:49:00.878Z,7.70
2023-02-23T09:51:29.595Z,9.15
2023-02-23T09:54:00.098Z,7.70
2023-02-23T09:56:35.733Z,8.05
2023-02-23T09:59:09.907Z,7.95
2023-02-23T10:01:53.969Z,7.47
2023-02-23T10:04:43.835Z,7.60
2023-02-23T10:07:28.534Z,7.97
2023-02-23T10:10:28.016Z,7.90
2023-02-23T10:13:33.602Z,7.30
2023-02-23T10:16:30.357Z,7.47
2023-02-23T10:19:13.099Z,7.63
2023-02-23T10:21:43.698Z,7.97
2023-02-23T10:24:43.166Z,7.40
2023-02-23T10:27:16.437Z,7.22
2023-02-23T10:29:57.315Z,9.15
2023-02-23T10:32:32.462Z,8.20
2023-02-23T10:35:00.167Z,7.57
2023-02-23T10:37:27.718Z,7.45
2023-02-23T10:39:55.104Z,7.40
2023-02-23T10:42:28.951Z,6.25
2023-02-23T10:44:57.489Z,7.10
2023-02-23T10:47:32.538Z,6.95
2023-02-23T10:50:00.799Z,7.22
2023-02-23T10:52:42.683Z,6.80
2023-02-23T10:55:28.792Z,7.15
2023-02-23T10:58:19.094Z,7.55
2023-02-23T11:01:04.729Z,5.93
2023-02-23T11:03:57.593Z,6.82
2023-02-23T11:06:35.006Z,7.00
2023-02-23T11:09:33.109Z,6.88
2023-02-23T11:12:44.716Z,7.00
2023-02-23T11:18:20.935Z,6.25
2023-02-23T11:20:49.133Z,6.72
2023-02-23T11:23:31.899Z,6.15
2023-02-23T11:26:01.950Z,7.10
2023-02-23T11:28:35.644Z,6.47
2023-02-23T11:31:09.255Z,7.22
2023-02-23T11:33:39.118Z,6.07
2023-02-23T11:36:29.180Z,6.30
2023-02-23T11:39:07.475Z,6.28
2023-02-23T11:41:37.215Z,6.03
2023-02-23T11:44:06.376Z,5.85
2023-02-23T11:46:38.230Z,6.25
2023-02-23T11:49:10.001Z,5.78
2023-02-23T11:51:40.976Z,5.50
2023-02-23T11:54:22.285Z,6.63
2023-02-23T11:56:55.217Z,5.32
2023-02-23T11:59:54.341Z,5.25
2023-02-23T12:02:25.059Z,5.07
2023-02-23T12:05:21.954Z,5.13
2023-02-23T12:08:20.055Z,6.28
2023-02-23T12:10:55.874Z,5.35
2023-02-23T12:13:43.850Z,5.72
2023-02-23T12:16:18.782Z,6.75
2023-02-23T12:19:23.204Z,6.43
2023-02-23T12:22:22.716Z,6.28
2023-02-23T12:24:59.418Z,5.72
2023-02-23T12:27:41.490Z,5.47
2023-02-23T12:33:02.518Z,5.55
2023-02-23T12:35:55.472Z,5.75
2023-02-23T12:38:39.718Z,5.50
2023-02-23T12:41:12.935Z,4.70
2023-02-23T12:43:57.773Z,5.72
2023-02-23T12:46:38.645Z,5.38
2023-02-23T12:49:36.270Z,5.63
2023-02-23T12:52:20.475Z,5.53
2023-02-23T12:54:48.013Z,5.10
2023-02-23T12:57:31.847Z,4.95
2023-02-23T13:00:32.842Z,5.32
2023-02-23T13:03:38.449Z,4.80
2023-02-23T13:06:47.215Z,4.55
2023-02-23T13:09:43.576Z,4.32
2023-02-23T13:12:27.102Z,4.47
2023-02-23T13:15:33.297Z,4.35
2023-02-23T13:21:49.155Z,4.55
2023-02-23T13:24:25.408Z,4.82
2023-02-23T13:27:05.837Z,4.30
2023-02-23T13:29:44.759Z,3.85
2023-02-23T13:32:18.833Z,4.57
2023-02-23T13:35:00.893Z,4.50
2023-02-23T13:37:39.432Z,4.38
2023-02-23T13:40:54.952Z,5.28
2023-02-23T13:43:37.901Z,4.55
2023-02-23T13:46:55.818Z,4.70
2023-02-23T13:49:39.110Z,4.65
2023-02-23T13:52:33.860Z,4.20
2023-02-23T13:55:04.511Z,4.90
2023-02-23T13:57:32.873Z,5.75
2023-02-23T14:00:01.164Z,4.65
2023-02-23T14:02:43.479Z,4.07
2023-02-23T14:05:31.698Z,4.90
2023-02-23T14:08:02.935Z,4.60
2023-02-23T14:10:41.977Z,5.55
2023-02-23T14:13:40.474Z,5.65
2023-02-23T14:16:28.149Z,5.78
2023-02-23T14:19:10.171Z,6.40
2023-02-23T14:21:52.414Z,6.00
2023-02-23T14:24:24.618Z,6.28
2023-02-23T14:27:41.303Z,6.60
2023-02-23T14:30:21.237Z,6.38
2023-02-23T14:32:50.577Z,7.07
2023-02-23T14:35:42.538Z,8.13
2023-02-23T14:38:16.004Z,7.07
2023-02-23T14:40:49.541Z,7.78
2023-02-23T14:43:53.514Z,8.25
2023-02-23T14:46:23.328Z,7.53
2023-02-23T14:49:02.231Z,8.73
2023-02-23T14:51:42.522Z,8.30
2023-02-23T14:54:31.323Z,9.48
2023-02-23T14:57:01.521Z,9.30
2023-02-23T14:59:38.199Z,8.27
2023-02-23T15:02:25.274Z,8.88
2023-02-23T15:04:53.080Z,9.13
2023-02-23T15:07:32.308Z,8.95
2023-02-23T15:10:01.389Z,8.25
2023-02-23T15:12:34.784Z,8.07
2023-02-23T15:15:03.964Z,8.85
2023-02-23T15:17:33.892Z,8.65
2023-02-23T15:20:16.428Z,8.50
2023-02-23T15:22:48.710Z,8.48
2023-02-23T15:25:19.253Z,8.65
2023-02-23T15:27:47.951Z,7.38
2023-02-23T15:30:35.659Z,7.75
2023-02-23T15:33:12.597Z,9.00
2023-02-23T15:35:49.579Z,8.10
2023-02-23T15:38:42.229Z,9.63
2023-02-23T15:41:36.128Z,8.88
2023-02-23T15:44:20.876Z,8.95
2023-02-23T15:46:59.971Z,9.43
2023-02-23T15:49:33.898Z,9.73
2023-02-23T15:52:08.909Z,10.68
2023-02-23T15:55:02.009Z,9.43
2023-02-23T15:57:31.996Z,10.10
2023-02-23T16:00:02.469Z,11.35
2023-02-23T16:02:36.976Z,10.05
2023-02-23T16:05:22.598Z,10.63
2023-02-23T16:08:06.273Z,10.82
2023-02-23T16:10:46.729Z,9.73
2023-02-23T16:13:19.902Z,10.52
2023-02-23T16:15:50.101Z,10.68
2023-02-23T16:18:35.046Z,10.27
2023-02-23T16:21:04.436Z,10.43
2023-02-23T16:23:41.426Z,12.13
2023-02-23T16:26:16.360Z,10.75
2023-02-23T16:28:46.345Z,9.60
2023-02-23T16:31:22.835Z,9.73
2023-02-23T16:34:00.362Z,9.63
2023-02-23T16:36:39.845Z,10.82
2023-02-23T16:39:11.813Z,9.50
2023-02-23T16:44:12.690Z,10.27
2023-02-23T16:46:55.712Z,11.10
2023-02-23T16:49:23.673Z,13.38
2023-02-23T16:51:52.647Z,11.85
2023-02-23T16:54:19.999Z,13.80
2023-02-23T16:56:48.310Z,12.88
2023-02-23T16:59:18.124Z,12.77
2023-02-23T17:01:47.006Z,12.15
2023-02-23T17:04:15.643Z,13.32
2023-02-23T17:06:44.268Z,13.55
2023-02-23T17:09:15.158Z,13.38
2023-02-23T17:11:47.203Z,12.07
2023-02-23T17:14:24.579Z,11.68
2023-02-23T17:16:52.108Z,12.05
2023-02-23T17:19:20.308Z,12.65
2023-02-23T17:21:49.144Z,14.40
2023-02-23T17:24:16.931Z,13.25
2023-02-23T17:26:44.318Z,13.65
2023-02-23T17:29:11.766Z,13.43
2023-02-23T17:31:40.765Z,13.90
2023-02-23T17:34:08.282Z,14.30
2023-02-23T17:36:35.754Z,12.82
2023-02-23T17:39:03.526Z,14.38
2023-02-23T17:41:31.116Z,15.38
2023-02-23T17:43:58.784Z,13.30
2023-02-23T17:46:26.267Z,14.25
2023-02-23T17:48:55.275Z,16.00
2023-02-23T17:51:23.881Z,15.90
2023-02-23T17:53:51.473Z,15.68
2023-02-23T17:56:20.346Z,16.35
2023-02-23T17:58:48.358Z,16.00
2023-02-23T18:01:16.455Z,16.25
2023-02-23T18:03:44.106Z,15.25
2023-02-23T18:06:13.478Z,16.27
2023-02-23T18:08:43.144Z,15.70
2023-02-23T18:11:10.644Z,18.67
2023-02-23T18:13:38.360Z,17.90
2023-02-23T18:16:09.670Z,18.08
2023-02-23T18:18:40.798Z,18.25
2023-02-23T18:21:13.659Z,17.00
2023-02-23T18:23:41.434Z,18.08
2023-02-23T18:26:12.078Z,17.45
2023-02-23T18:28:41.165Z,16.15
2023-02-23T18:31:08.722Z,17.98
2023-02-23T18:33:36.448Z,19.25
2023-02-23T18:36:13.926Z,20.17
2023-02-23T18:38:41.294Z,20.65
2023-02-23T18:41:08.751Z,20.80
2023-02-23T18:43:36.256Z,17.25
2023-02-23T18:46:11.813Z,16.45
2023-02-23T18:48:39.952Z,16.65
2023-02-23T18:51:12.373Z,18.17
2023-02-23T18:53:40.663Z,17.17
2023-02-23T18:56:10.611Z,18.95
2023-02-23T18:58:38.735Z,18.63
2023-02-23T19:01:18.247Z,20.15
2023-02-23T19:03:46.638Z,19.02
2023-02-23T19:06:16.312Z,16.83
2023-02-23T19:08:44.878Z,19.73
2023-02-23T19:11:12.704Z,19.48
2023-02-23T19:13:40.429Z,19.45
2023-02-23T19:16:08.342Z,20.70
2023-02-23T19:18:36.715Z,19.90
2023-02-23T19:21:04.954Z,21.38
2023-02-23T19:23:32.405Z,20.75
2023-02-23T19:26:02.564Z,20.02
2023-02-23T19:28:30.384Z,21.80
2023-02-23T19:31:09.571Z,20.38
2023-02-23T19:33:39.968Z,21.52
2023-02-23T19:36:10.727Z,20.63
2023-02-23T19:38:39.313Z,18.95
2023-02-23T19:41:08.734Z,20.60
2023-02-23T19:43:36.211Z,19.42
2023-02-23T19:46:08.993Z,19.80
2023-02-23T19:48:36.579Z,18.35
2023-02-23T19:51:04.569Z,19.80
2023-02-23T19:53:32.773Z,20.38
2023-02-23T19:56:02.236Z,17.92
2023-02-23T19:58:29.643Z,20.50
2023-02-23T20:00:57.843Z,20.80
2023-02-23T20:03:28.635Z,18.83
2023-02-23T20:05:56.535Z,22.42
2023-02-23T20:08:25.208Z,23.90
2023-02-23T20:10:53.247Z,23.13
2023-02-23T20:13:23.772Z,23.95
2023-02-23T20:15:59.457Z,24.00
2023-02-23T20:18:28.547Z,25.63
2023-02-23T20:20:56.071Z,22.92
2023-02-23T20:23:23.532Z,25.02
2023-02-23T20:25:50.983Z,22.52
2023-02-23T20:28:18.473Z,23.42
2023-02-23T20:30:47.559Z,24.13
2023-02-23T20:33:15.580Z,24.05
2023-02-23T20:35:43.462Z,23.77
2023-02-23T20:38:11.693Z,21.17
2023-02-23T20:40:39.158Z,19.83
2023-02-23T20:43:06.618Z,20.35
2023-02-23T20:45:34.461Z,20.83
2023-02-23T20:48:04.765Z,23.05
2023-02-23T20:50:34.027Z,20.77
2023-02-23T20:53:02.655Z,21.67
2023-02-23T20:55:31.754Z,21.42
2023-02-23T20:57:59.551Z,22.80
2023-02-23T21:00:32.244Z,21.95
2023-02-23T21:03:02.206Z,22.25
2023-02-23T21:05:32.723Z,20.33
2023-02-23T21:08:01.819Z,20.05
2023-02-23T21:10:34.072Z,19.40
2023-02-23T21:13:01.675Z,21.25
2023-02-23T21:15:29.723Z,20.80
2023-02-23T21:17:58.957Z,21.15
2023-02-23T21:20:27.983Z,22.05
2023-02-23T21:22:56.052Z,21.83
2023-02-23T21:25:25.616Z,22.25
2023-02-23T21:27:54.392Z,22.50
2023-02-23T21:30:24.753Z,23.30
2023-02-23T21:32:53.748Z,23.20
2023-02-23T21:35:21.943Z,24.00
2023-02-23T21:37:51.193Z,24.83
2023-02-23T21:40:21.491Z,25.75
2023-02-23T21:42:50.112Z,24.92
2023-02-23T21:45:18.825Z,26.42
2023-02-23T21:47:47.439Z,26.15
2023-02-23T21:50:17.668Z,26.13
2023-02-23T21:52:48.733Z,25.08
2023-02-23T21:55:24.468Z,27.57
2023-02-23T21:57:52.689Z,27.42
2023-02-23T22:00:21.891Z,26.08
2023-02-23T22:02:50.461Z,26.58
2023-02-23T22:05:19.090Z,26.80
2023-02-23T22:07:53.055Z,25.45
2023-02-23T22:10:22.766Z,27.40
2023-02-23T22:12:53.634Z,27.15
2023-02-23T22:15:24.727Z,24.30
2023-02-23T22:17:52.052Z,26.52
2023-02-23T22:20:21.418Z,26.30
2023-02-23T22:22:50.546Z,28.17
2023-02-23T22:25:19.934Z,28.35
2023-02-23T22:27:48.171Z,24.75
2023-02-23T22:30:16.163Z,26.88
2023-02-23T22:32:44.101Z,27.42
2023-02-23T22:35:12.127Z,26.27
2023-02-23T22:37:40.026Z,27.83
2023-02-23T22:40:13.223Z,25.38
2023-02-23T22:42:43.461Z,27.23
2023-02-23T22:45:11.769Z,26.88
2023-02-23T22:47:39.485Z,25.00
2023-02-23T22:50:07.630Z,27.55
2023-02-23T22:52:35.920Z,27.17
2023-02-23T22:55:04.037Z,27.10
2023-02-23T22:57:31.733Z,25.23
2023-02-23T23:00:11.806Z,28.40
2023-02-23T23:02:39.303Z,26.63
2023-02-23T23:05:08.103Z,26.70
2023-02-23T23:07:35.869Z,26.88
2023-02-23T23:10:05.778Z,27.30
2023-02-23T23:12:34.735Z,26.80
2023-02-23T23:15:03.562Z,25.20
2023-02-23T23:17:32.164Z,25.92
2023-02-23T23:20:10.716Z,25.60
2023-02-23T23:22:38.980Z,25.42
2023-02-23T23:25:14.752Z,24.58
2023-02-23T23:27:44.940Z,23.92
2023-02-23T23:30:13.757Z,23.88
2023-02-23T23:32:41.383Z,24.30
2023-02-23T23:35:11.473Z,22.52
2023-02-23T23:37:40.271Z,22.83
2023-02-23T23:40:14.068Z,23.70
2023-02-23T23:42:46.596Z,24.58
2023-02-23T23:45:17.529Z,23.65
2023-02-23T23:47:46.202Z,23.02
2023-02-23T23:50:18.273Z,22.70
2023-02-23T23:55:14.943Z,19.90
2023-02-23T23:57:42.678Z,17.15
